Time,TemperatureF,DewpointF,PressureIn,WindDirection,WindDirectionDegrees,WindSpeedMPH,WindSpeedGustMPH,Humidity,HourlyPrecipIn,Conditions,Clouds,dailyrainin,SoftwareType,DateUTC
2013-10-18 00:13:00,34.0,29.0,29.99,NW,319,0.0,2.0,81,0.00,,,0.04,,2013-10-18 05:13:00,
2013-10-18 00:23:00,35.0,29.0,29.99,NW,319,0.0,2.0,80,0.01,,,0.04,,2013-10-18 05:23:00,
2013-10-18 00:43:00,34.0,29.0,29.99,NW,319,0.0,0.0,81,0.01,,,0.04,,2013-10-18 05:43:00,
2013-10-18 00:52:00,33.0,28.0,29.98,NW,319,0.0,1.0,82,0.01,,,0.04,,2013-10-18 05:52:00,
2013-10-18 01:12:00,33.0,28.0,29.98,NW,319,0.0,0.0,83,0.01,,,0.04,,2013-10-18 06:12:00,
2013-10-18 01:21:00,32.0,28.0,29.98,NW,319,0.0,1.0,85,0.00,,,0.04,,2013-10-18 06:21:00,
2013-10-18 01:42:00,32.0,28.0,29.98,NW,319,0.0,1.0,86,0.00,,,0.04,,2013-10-18 06:42:00,
2013-10-18 01:52:00,31.0,27.0,29.98,NW,319,0.0,1.0,86,0.00,,,0.04,,2013-10-18 06:52:00,
2013-10-18 02:11:00,31.0,28.0,29.98,NW,319,0.0,1.0,87,0.00,,,0.04,,2013-10-18 07:11:00,
2013-10-18 02:21:00,32.0,29.0,29.98,NW,319,1.0,2.0,87,0.00,,,0.04,,2013-10-18 07:21:00,
2013-10-18 02:42:00,32.0,29.0,29.98,WNW,302,1.0,4.0,87,0.00,,,0.04,,2013-10-18 07:42:00,
2013-10-18 02:52:00,32.0,28.0,29.98,WNW,283,0.0,2.0,86,0.00,,,0.04,,2013-10-18 07:52:00,
2013-10-18 03:11:00,32.0,28.0,29.98,WNW,282,1.0,4.0,86,0.00,,,0.04,,2013-10-18 08:11:00,
2013-10-18 03:22:00,32.0,28.0,29.98,WNW,283,1.0,3.0,85,0.00,,,0.04,,2013-10-18 08:22:00,
2013-10-18 03:42:00,33.0,29.0,29.97,West,274,2.0,4.0,85,0.00,,,0.04,,2013-10-18 08:42:00,
2013-10-18 03:52:00,33.0,29.0,29.97,West,269,1.0,4.0,85,0.00,,,0.04,,2013-10-18 08:52:00,
2013-10-18 04:12:00,33.0,29.0,29.97,West,261,1.0,5.0,85,0.00,,,0.04,,2013-10-18 09:12:00,
2013-10-18 04:21:00,33.0,29.0,29.97,NW,311,2.0,5.0,85,0.00,,,0.03,,2013-10-18 09:21:00,
2013-10-18 04:53:00,34.0,30.0,29.97,WNW,295,3.0,7.0,86,0.00,,,0.03,,2013-10-18 09:53:00,
2013-10-18 05:12:00,35.0,31.0,29.97,WNW,303,3.0,6.0,86,0.00,,,0.03,,2013-10-18 10:12:00,
2013-10-18 05:23:00,35.0,32.0,29.97,NW,304,3.0,7.0,87,0.00,,,0.03,,2013-10-18 10:23:00,
2013-10-18 05:43:00,35.0,32.0,29.97,WNW,297,2.0,5.0,88,0.00,,,0.03,,2013-10-18 10:43:00,
2013-10-18 05:53:00,35.0,32.0,29.97,WNW,297,1.0,4.0,89,0.00,,,0.03,,2013-10-18 10:53:00,
2013-10-18 06:12:00,35.0,32.0,29.97,WNW,297,1.0,4.0,90,0.00,,,0.03,,2013-10-18 11:12:00,
2013-10-18 06:22:00,35.0,32.0,29.97,WNW,297,0.0,1.0,90,0.00,,,0.03,,2013-10-18 11:22:00,
2013-10-18 06:42:00,35.0,33.0,29.97,WNW,297,0.0,2.0,91,0.00,,,0.03,,2013-10-18 11:42:00,
2013-10-18 06:52:00,35.0,33.0,29.97,WNW,297,0.0,1.0,92,0.00,,,0.03,,2013-10-18 11:52:00,
2013-10-18 07:12:00,35.0,33.0,29.98,NW,305,3.0,7.0,93,0.00,,,0.03,,2013-10-18 12:12:00,
2013-10-18 07:21:00,35.0,33.0,29.97,NNW,341,3.0,5.0,93,0.00,,,0.03,,2013-10-18 12:21:00,
2013-10-18 07:42:00,35.0,33.0,29.97,NW,311,3.0,6.0,94,0.00,,,0.03,,2013-10-18 12:42:00,
2013-10-18 07:52:00,36.0,34.0,29.97,NW,310,3.0,9.0,94,0.00,,,0.03,,2013-10-18 12:52:00,
2013-10-18 08:11:00,36.0,34.0,29.97,NW,311,4.0,8.0,94,0.00,,,0.03,,2013-10-18 13:11:00,
2013-10-18 08:22:00,36.0,34.0,29.98,NNW,328,4.0,8.0,94,0.00,,,0.03,,2013-10-18 13:22:00,
2013-10-18 08:42:00,36.0,34.0,29.98,NW,312,2.0,6.0,94,0.00,,,0.03,,2013-10-18 13:42:00,
2013-10-18 08:52:00,36.0,34.0,29.98,WNW,302,4.0,9.0,94,0.00,,,0.03,,2013-10-18 13:52:00,
2013-10-18 09:11:00,36.0,35.0,29.98,NW,315,3.0,7.0,95,0.00,,,0.03,,2013-10-18 14:11:00,
2013-10-18 09:21:00,36.0,35.0,29.98,NW,316,2.0,5.0,95,0.01,,,0.04,,2013-10-18 14:21:00,
2013-10-18 09:42:00,35.0,33.0,29.99,WNW,285,2.0,5.0,94,0.02,,,0.05,,2013-10-18 14:42:00,
2013-10-18 09:52:00,36.0,35.0,29.99,WNW,294,2.0,6.0,95,0.04,,,0.07,,2013-10-18 14:52:00,
2013-10-18 10:11:00,37.0,36.0,29.99,WNW,296,4.0,8.0,95,0.07,,,0.10,,2013-10-18 15:11:00,
2013-10-18 10:22:00,37.0,36.0,29.99,West,280,4.0,10.0,95,0.07,,,0.10,,2013-10-18 15:22:00,
2013-10-18 10:43:00,38.0,37.0,29.99,NNW,346,4.0,9.0,95,0.06,,,0.10,,2013-10-18 15:43:00,
2013-10-18 10:54:00,39.0,37.0,29.99,NW,323,5.0,10.0,94,0.05,,,0.10,,2013-10-18 15:54:00,
2013-10-18 11:12:00,39.0,37.0,29.99,WSW,245,5.0,12.0,91,0.03,,,0.11,,2013-10-18 16:12:00,
2013-10-18 11:24:00,38.0,35.0,29.99,WSW,254,6.0,13.0,90,0.01,,,0.11,,2013-10-18 16:24:00,
2013-10-18 11:42:00,39.0,36.0,29.98,WNW,302,5.0,13.0,89,0.01,,,0.11,,2013-10-18 16:42:00,
2013-10-18 11:53:00,39.0,36.0,29.98,WNW,286,5.0,12.0,89,0.01,,,0.11,,2013-10-18 16:53:00,
2013-10-18 12:12:00,39.0,36.0,29.98,NW,319,4.0,12.0,89,0.00,,,0.11,,2013-10-18 17:12:00,
2013-10-18 12:22:00,40.0,36.0,29.98,NNW,328,5.0,16.0,87,0.00,,,0.11,,2013-10-18 17:22:00,
2013-10-18 12:42:00,40.0,36.0,29.97,WNW,302,5.0,13.0,87,0.00,,,0.11,,2013-10-18 17:42:00,
2013-10-18 12:52:00,40.0,36.0,29.97,NW,304,5.0,13.0,86,0.00,,,0.11,,2013-10-18 17:52:00,
2013-10-18 13:12:00,42.0,37.0,29.96,NNW,327,5.0,11.0,83,0.00,,,0.11,,2013-10-18 18:12:00,
2013-10-18 13:22:00,42.0,37.0,29.96,WNW,294,6.0,13.0,81,0.00,,,0.11,,2013-10-18 18:22:00,
2013-10-18 13:42:00,42.0,36.0,29.96,NW,309,7.0,16.0,78,0.00,,,0.11,,2013-10-18 18:42:00,
2013-10-18 13:52:00,43.0,36.0,29.95,NNW,341,7.0,15.0,77,0.00,,,0.11,,2013-10-18 18:52:00,
2013-10-18 14:12:00,43.0,36.0,29.94,WNW,296,5.0,16.0,76,0.00,,,0.11,,2013-10-18 19:12:00,
2013-10-18 14:22:00,44.0,36.0,29.93,West,265,5.0,12.0,74,0.00,,,0.11,,2013-10-18 19:22:00,
2013-10-18 14:42:00,45.0,37.0,29.92,WSW,250,5.0,12.0,72,0.00,,,0.11,,2013-10-18 19:42:00,
2013-10-18 14:52:00,46.0,36.0,29.91,North,355,5.0,15.0,69,0.00,,,0.11,,2013-10-18 19:52:00,
2013-10-18 15:11:00,46.0,36.0,29.90,NW,305,6.0,14.0,68,0.00,,,0.11,,2013-10-18 20:11:00,
2013-10-18 15:22:00,46.0,36.0,29.89,WNW,296,7.0,17.0,67,0.00,,,0.10,,2013-10-18 20:22:00,
2013-10-18 15:42:00,47.0,37.0,29.89,NW,309,5.0,15.0,67,0.00,,,0.10,,2013-10-18 20:42:00,
2013-10-18 15:52:00,46.0,35.0,29.88,NW,325,8.0,16.0,65,0.00,,,0.10,,2013-10-18 20:52:00,
2013-10-18 16:12:00,46.0,34.0,29.88,NW,309,6.0,14.0,62,0.00,,,0.10,,2013-10-18 21:12:00,
2013-10-18 16:22:00,46.0,34.0,29.88,WNW,285,8.0,15.0,62,0.00,,,0.10,,2013-10-18 21:22:00,
2013-10-18 16:44:00,46.0,35.0,29.88,WNW,298,5.0,12.0,65,0.00,,,0.10,,2013-10-18 21:44:00,
2013-10-18 16:54:00,46.0,34.0,29.87,NNW,340,5.0,14.0,62,0.00,,,0.10,,2013-10-18 21:54:00,
2013-10-18 17:13:00,46.0,33.0,29.86,NW,307,4.0,16.0,61,0.00,,,0.10,,2013-10-18 22:13:00,
2013-10-18 17:24:00,46.0,33.0,29.86,West,263,4.0,13.0,60,0.00,,,0.10,,2013-10-18 22:24:00,
2013-10-18 17:43:00,47.0,34.0,29.85,NW,309,7.0,12.0,60,0.00,,,0.10,,2013-10-18 22:43:00,
2013-10-18 17:54:00,46.0,34.0,29.85,NW,319,4.0,10.0,62,0.00,,,0.10,,2013-10-18 22:54:00,
2013-10-18 18:12:00,46.0,34.0,29.85,West,271,6.0,14.0,62,0.00,,,0.10,,2013-10-18 23:12:00,
2013-10-18 18:23:00,46.0,34.0,29.85,NW,304,6.0,14.0,62,0.00,,,0.10,,2013-10-18 23:23:00,
2013-10-18 18:42:00,46.0,34.0,29.84,WSW,244,3.0,11.0,63,0.00,,,0.10,,2013-10-18 23:42:00,
2013-10-18 18:53:00,45.0,33.0,29.84,WSW,238,3.0,10.0,62,0.00,,,0.10,,2013-10-18 23:53:00,
2013-10-18 19:11:00,45.0,34.0,29.84,WNW,302,7.0,15.0,64,0.00,,,0.10,,2013-10-19 00:11:00,
2013-10-18 19:22:00,45.0,34.0,29.84,NW,326,4.0,11.0,65,0.00,,,0.10,,2013-10-19 00:22:00,
2013-10-18 19:42:00,45.0,35.0,29.85,West,263,9.0,23.0,67,0.00,,,0.10,,2013-10-19 00:42:00,
2013-10-18 19:52:00,43.0,35.0,29.85,NW,323,7.0,19.0,74,0.00,,,0.10,,2013-10-19 00:52:00,
2013-10-18 20:12:00,42.0,36.0,29.84,WNW,300,5.0,14.0,80,0.00,,,0.10,,2013-10-19 01:12:00,
2013-10-18 20:21:00,41.0,36.0,29.84,WNW,300,4.0,11.0,83,0.00,,,0.10,,2013-10-19 01:21:00,
2013-10-18 20:42:00,41.0,37.0,29.84,WNW,297,5.0,9.0,87,0.00,,,0.10,,2013-10-19 01:42:00,
2013-10-18 20:53:00,40.0,37.0,29.83,WSW,250,2.0,7.0,89,0.00,,,0.10,,2013-10-19 01:53:00,
2013-10-18 21:12:00,40.0,37.0,29.83,West,265,2.0,4.0,90,0.00,,,0.10,,2013-10-19 02:12:00,
2013-10-18 21:22:00,40.0,38.0,29.82,NW,318,4.0,10.0,91,0.00,,,0.10,,2013-10-19 02:22:00,
2013-10-18 21:42:00,40.0,38.0,29.81,WSW,244,3.0,8.0,91,0.00,,,0.10,,2013-10-19 02:42:00,
2013-10-18 21:52:00,40.0,38.0,29.81,WSW,251,3.0,9.0,92,0.00,,,0.10,,2013-10-19 02:52:00,
2013-10-18 22:12:00,40.0,38.0,29.81,West,261,4.0,9.0,92,0.00,,,0.10,,2013-10-19 03:12:00,
2013-10-18 22:23:00,41.0,39.0,29.80,WNW,302,7.0,14.0,92,0.00,,,0.10,,2013-10-19 03:23:00,
2013-10-18 22:44:00,41.0,38.0,29.80,NNW,327,6.0,13.0,90,0.00,,,0.10,,2013-10-19 03:44:00,
2013-10-18 22:55:00,42.0,39.0,29.79,West,261,4.0,13.0,90,0.01,,,0.11,,2013-10-19 03:55:00,
2013-10-18 23:13:00,42.0,39.0,29.79,WSW,240,4.0,12.0,89,0.01,,,0.11,,2013-10-19 04:13:00,
2013-10-18 23:24:00,42.0,39.0,29.79,WNW,291,3.0,12.0,90,0.01,,,0.11,,2013-10-19 04:24:00,
2013-10-18 23:44:00,41.0,38.0,29.78,WSW,253,2.0,9.0,90,0.00,,,0.11,,2013-10-19 04:44:00,
2013-10-18 23:54:00,41.0,39.0,29.78,SW,231,4.0,9.0,91,0.00,,,0.11,,2013-10-19 04:54:00,